Paratinga, Brazil
Current Conditions -  °F | °C
As of 7:00 AM on Monday 26 Jan 2015 (Local Time) from SBQV Reporting Station
Broken Clouds Broken Clouds  
Wind Chill: 68°   Ceiling: 700
Heat Index: 68°   Visibility: 6mi
Dew Point: 66°   Wind: 3mph
Humidity: 94%   Direction: 20°NNE
Pressure: 30.12"   Gusts: NA
Location:  12.69°S, 43.18°W
Report Text: SBQV 261000Z 02003KT 9999 FEW005 BKN007 20/19 Q1020
Loading
Personal Weather Stations






























Interactive Weather Map New forecast layout! Learn more

10-Day Weather Forecast

Advertisements
Track Severe Weather on mobile